createdAt,value
2023-05-09T00:01:29.894Z,4.37
2023-05-09T00:03:57.300Z,4.13
2023-05-09T00:06:24.166Z,4.40
2023-05-09T00:08:51.408Z,4.33
2023-05-09T00:11:18.202Z,4.60
2023-05-09T00:13:45.383Z,4.43
2023-05-09T00:16:13.830Z,4.50
2023-05-09T00:18:42.487Z,4.57
2023-05-09T00:21:09.445Z,4.70
2023-05-09T00:23:36.576Z,4.33
2023-05-09T00:26:03.572Z,4.97
2023-05-09T00:28:30.746Z,4.70
2023-05-09T00:30:57.516Z,4.60
2023-05-09T00:33:27.226Z,5.00
2023-05-09T00:35:54.250Z,4.87
2023-05-09T00:38:22.642Z,5.13
2023-05-09T00:40:49.501Z,4.90
2023-05-09T00:43:17.155Z,5.00
2023-05-09T00:45:44.252Z,5.53
2023-05-09T00:48:11.862Z,5.20
2023-05-09T00:50:40.121Z,4.77
2023-05-09T00:53:07.873Z,5.10
2023-05-09T00:55:34.803Z,5.37
2023-05-09T00:58:03.159Z,5.70
2023-05-09T01:00:29.993Z,5.53
2023-05-09T01:02:57.465Z,5.67
2023-05-09T01:05:30.440Z,5.60
2023-05-09T01:08:07.716Z,5.13
2023-05-09T01:10:51.962Z,5.60
2023-05-09T01:13:26.699Z,5.57
2023-05-09T01:15:58.999Z,5.67
2023-05-09T01:18:33.662Z,5.80
2023-05-09T01:21:05.292Z,5.50
2023-05-09T01:23:57.044Z,5.83
2023-05-09T01:26:36.429Z,6.37
2023-05-09T01:29:23.309Z,5.57
2023-05-09T01:31:52.409Z,5.37
2023-05-09T01:34:22.879Z,5.97
2023-05-09T01:36:52.181Z,6.57
2023-05-09T01:39:20.855Z,6.17
2023-05-09T01:41:49.659Z,5.80
2023-05-09T01:44:18.886Z,6.10
2023-05-09T01:46:47.066Z,6.20
2023-05-09T01:49:15.088Z,6.07
2023-05-09T01:51:43.925Z,6.17
2023-05-09T01:54:12.954Z,5.80
2023-05-09T01:56:42.280Z,7.00
2023-05-09T01:59:13.860Z,5.70
2023-05-09T02:01:42.566Z,6.13
2023-05-09T02:04:10.471Z,6.53
2023-05-09T02:06:38.774Z,5.83
2023-05-09T02:09:06.248Z,5.90
2023-05-09T02:11:33.055Z,6.30
2023-05-09T02:14:00.640Z,6.50
2023-05-09T02:16:28.065Z,6.00
2023-05-09T02:18:56.801Z,6.60
2023-05-09T02:21:23.774Z,6.70
2023-05-09T02:23:51.153Z,6.13
2023-05-09T02:26:18.207Z,6.57
2023-05-09T02:28:46.990Z,6.00
2023-05-09T02:31:14.669Z,6.67
2023-05-09T02:33:43.259Z,7.13
2023-05-09T02:36:12.189Z,6.30
2023-05-09T02:38:39.580Z,6.20
2023-05-09T02:41:06.554Z,6.83
2023-05-09T02:43:33.749Z,7.07
2023-05-09T02:46:00.606Z,6.97
2023-05-09T02:48:27.944Z,7.07
2023-05-09T02:50:54.864Z,6.63
2023-05-09T02:53:23.136Z,6.73
2023-05-09T02:55:50.408Z,6.90
2023-05-09T02:58:17.297Z,6.93
2023-05-09T03:00:44.477Z,7.13
2023-05-09T03:03:11.596Z,7.17
2023-05-09T03:05:39.258Z,7.20
2023-05-09T03:08:06.686Z,7.30
2023-05-09T03:10:35.546Z,7.23
2023-05-09T03:13:02.608Z,7.13
2023-05-09T03:15:29.747Z,7.30
2023-05-09T03:17:56.531Z,7.10
2023-05-09T03:20:23.758Z,7.83
2023-05-09T03:22:50.583Z,7.30
2023-05-09T03:25:17.893Z,7.57
2023-05-09T03:27:46.231Z,7.70
2023-05-09T03:30:14.229Z,7.40
2023-05-09T03:32:41.375Z,7.77
2023-05-09T03:35:08.943Z,7.67
2023-05-09T03:37:35.845Z,7.80
2023-05-09T03:40:03.117Z,7.80
2023-05-09T03:42:30.144Z,7.47
2023-05-09T03:44:58.690Z,8.17
2023-05-09T03:47:25.884Z,7.20
2023-05-09T03:49:54.009Z,7.87
2023-05-09T03:52:21.098Z,7.53
2023-05-09T03:54:48.235Z,7.53
2023-05-09T03:57:15.096Z,7.80
2023-05-09T03:59:42.230Z,8.57
2023-05-09T04:02:11.035Z,7.50
2023-05-09T04:04:38.337Z,7.67
2023-05-09T04:07:05.217Z,8.17
2023-05-09T04:09:32.470Z,7.40
2023-05-09T04:11:59.321Z,8.37
2023-05-09T04:14:26.472Z,7.77
2023-05-09T04:16:53.333Z,8.43
2023-05-09T04:19:21.798Z,8.00
2023-05-09T04:21:48.590Z,8.40
2023-05-09T04:24:15.539Z,8.07
2023-05-09T04:26:42.467Z,7.93
2023-05-09T04:29:09.567Z,7.90
2023-05-09T04:31:36.581Z,8.00
2023-05-09T04:34:03.925Z,7.60
2023-05-09T04:36:33.731Z,8.87
2023-05-09T04:39:01.076Z,9.07
2023-05-09T04:41:27.993Z,9.33
2023-05-09T04:43:55.273Z,8.70
2023-05-09T04:46:24.990Z,8.47
2023-05-09T04:48:53.024Z,7.30
2023-05-09T04:51:20.606Z,7.30
2023-05-09T04:53:49.651Z,7.20
2023-05-09T04:56:16.962Z,7.50
2023-05-09T04:58:43.808Z,7.13
2023-05-09T05:01:10.715Z,7.63
2023-05-09T05:03:37.740Z,7.53
2023-05-09T05:06:04.892Z,7.20
2023-05-09T05:08:32.054Z,7.20
2023-05-09T05:11:00.169Z,7.97
2023-05-09T05:13:27.956Z,7.17
2023-05-09T05:15:54.872Z,7.03
2023-05-09T05:18:22.058Z,7.30
2023-05-09T05:20:48.878Z,7.47
2023-05-09T05:23:16.118Z,7.17
2023-05-09T05:25:42.918Z,7.30
2023-05-09T05:28:11.567Z,7.53
2023-05-09T05:30:39.884Z,7.03
2023-05-09T05:33:06.987Z,7.67
2023-05-09T05:35:33.785Z,6.70
2023-05-09T05:38:01.267Z,7.60
2023-05-09T05:40:28.124Z,8.07
2023-05-09T05:42:54.971Z,7.53
2023-05-09T05:45:23.292Z,7.33
2023-05-09T05:47:50.562Z,6.30
2023-05-09T05:50:17.987Z,7.10
2023-05-09T05:52:44.804Z,7.03
2023-05-09T05:55:12.132Z,6.97
2023-05-09T05:57:39.204Z,7.17
2023-05-09T06:00:11.554Z,6.73
2023-05-09T06:02:41.948Z,7.03
2023-05-09T06:05:09.738Z,7.60
2023-05-09T06:07:36.515Z,6.43
2023-05-09T06:10:04.585Z,6.77
2023-05-09T06:12:31.388Z,7.77
2023-05-09T06:14:58.612Z,7.33
2023-05-09T06:17:25.565Z,6.50
2023-05-09T06:19:53.713Z,6.20
2023-05-09T06:22:20.522Z,6.03
2023-05-09T06:24:47.688Z,6.10
2023-05-09T06:27:14.517Z,7.00
2023-05-09T06:29:41.669Z,7.47
2023-05-09T06:32:08.443Z,6.30
2023-05-09T06:34:35.559Z,6.50
2023-05-09T06:37:03.769Z,6.53
2023-05-09T06:39:31.135Z,6.83
2023-05-09T06:41:57.932Z,5.90
2023-05-09T06:44:24.816Z,6.10
2023-05-09T06:46:51.624Z,6.50
2023-05-09T06:49:18.714Z,5.67
2023-05-09T06:51:45.541Z,5.77
2023-05-09T06:54:13.925Z,5.73
2023-05-09T06:56:40.828Z,5.60
2023-05-09T06:59:07.907Z,5.83
2023-05-09T07:01:34.829Z,5.80
2023-05-09T07:04:02.227Z,5.73
2023-05-09T07:06:29.041Z,5.70
2023-05-09T07:08:56.344Z,5.47
2023-05-09T07:11:24.720Z,5.60
2023-05-09T07:13:51.528Z,5.43
2023-05-09T07:16:18.494Z,5.17
2023-05-09T07:18:47.063Z,5.20
2023-05-09T07:21:13.839Z,5.10
2023-05-09T07:23:41.174Z,5.43
2023-05-09T07:26:08.486Z,5.63
2023-05-09T07:28:37.080Z,5.60
2023-05-09T07:31:04.529Z,5.00
2023-05-09T07:33:31.712Z,5.30
2023-05-09T07:35:58.753Z,5.50
2023-05-09T07:38:26.307Z,5.10
2023-05-09T07:40:53.275Z,4.93
2023-05-09T07:43:20.424Z,4.87
2023-05-09T07:45:48.562Z,4.90
2023-05-09T07:48:15.776Z,4.73
2023-05-09T07:50:42.566Z,4.90
2023-05-09T07:53:09.673Z,4.97
2023-05-09T07:55:36.506Z,5.13
2023-05-09T07:58:03.737Z,5.10
2023-05-09T08:00:30.572Z,5.20
2023-05-09T08:02:59.143Z,5.27
2023-05-09T08:05:25.965Z,5.40
2023-05-09T08:07:52.841Z,5.70
2023-05-09T08:10:19.684Z,5.07
2023-05-09T08:12:46.838Z,4.80
2023-05-09T08:15:13.832Z,5.33
2023-05-09T08:17:41.210Z,5.33
2023-05-09T08:20:11.170Z,5.17
2023-05-09T08:22:39.468Z,5.80
2023-05-09T08:25:07.519Z,5.60
2023-05-09T08:27:34.849Z,5.10
2023-05-09T08:30:01.692Z,5.50
2023-05-09T08:32:29.015Z,5.40
2023-05-09T08:34:55.797Z,5.43
2023-05-09T08:37:24.281Z,5.03
2023-05-09T08:39:51.078Z,5.50
2023-05-09T08:42:25.467Z,5.23
2023-05-09T08:44:53.222Z,5.40
2023-05-09T08:47:21.556Z,5.23
2023-05-09T08:49:50.026Z,4.97
2023-05-09T08:52:17.350Z,5.00
2023-05-09T08:54:46.196Z,4.57
2023-05-09T08:57:14.204Z,4.23
2023-05-09T08:59:42.644Z,4.80
2023-05-09T09:02:14.208Z,4.70
2023-05-09T09:04:41.107Z,4.80
2023-05-09T09:07:10.115Z,5.00
2023-05-09T09:09:39.581Z,5.50
2023-05-09T09:12:10.011Z,5.45
2023-05-09T09:14:39.310Z,5.32
2023-05-09T09:17:09.507Z,5.00
2023-05-09T09:19:39.069Z,5.63
2023-05-09T09:22:06.874Z,5.10
2023-05-09T09:24:35.186Z,5.38
2023-05-09T09:27:07.780Z,4.73
2023-05-09T09:29:34.811Z,5.13
2023-05-09T09:32:03.326Z,5.13
2023-05-09T09:34:30.324Z,5.30
2023-05-09T09:36:58.060Z,5.03
2023-05-09T09:39:24.922Z,4.97
2023-05-09T09:41:52.134Z,5.00
2023-05-09T09:44:21.806Z,4.97
2023-05-09T09:46:53.219Z,4.32
2023-05-09T09:49:21.409Z,4.65
2023-05-09T09:51:52.878Z,4.72
2023-05-09T09:54:20.111Z,4.30
2023-05-09T09:56:48.664Z,4.30
2023-05-09T09:59:17.727Z,4.05
2023-05-09T10:02:07.700Z,4.03
2023-05-09T10:04:37.750Z,4.22
2023-05-09T10:07:06.851Z,4.15
2023-05-09T10:09:34.969Z,4.05
2023-05-09T10:12:03.998Z,4.80
2023-05-09T10:14:34.997Z,3.78
2023-05-09T10:17:05.555Z,4.15
2023-05-09T10:19:32.774Z,4.35
2023-05-09T10:22:04.315Z,4.43
2023-05-09T10:24:35.455Z,4.97
2023-05-09T10:27:05.981Z,4.70
2023-05-09T10:29:37.627Z,4.88
2023-05-09T10:32:15.458Z,5.07
2023-05-09T10:34:47.042Z,5.15
2023-05-09T10:37:14.406Z,4.60
2023-05-09T10:39:42.873Z,5.10
2023-05-09T10:42:10.619Z,4.90
2023-05-09T10:44:38.608Z,4.35
2023-05-09T10:47:07.575Z,5.20
2023-05-09T10:49:37.124Z,5.60
2023-05-09T10:52:04.562Z,5.90
2023-05-09T10:54:34.753Z,6.00
2023-05-09T10:57:01.592Z,5.85
2023-05-09T10:59:40.518Z,5.70
2023-05-09T11:02:15.357Z,5.60
2023-05-09T11:04:44.100Z,5.72
2023-05-09T11:07:24.594Z,6.25
2023-05-09T11:09:52.886Z,5.50
2023-05-09T11:12:21.569Z,5.50
2023-05-09T11:14:49.699Z,6.03
2023-05-09T11:17:30.823Z,4.80
2023-05-09T11:20:00.279Z,5.75
2023-05-09T11:22:28.757Z,5.80
2023-05-09T11:25:02.585Z,5.50
2023-05-09T11:27:30.288Z,4.75
2023-05-09T11:29:58.648Z,5.18
2023-05-09T11:32:32.767Z,4.65
2023-05-09T11:35:06.291Z,5.38
2023-05-09T11:37:33.874Z,4.95
2023-05-09T11:40:05.807Z,5.10
2023-05-09T11:42:33.160Z,4.65
2023-05-09T11:45:00.011Z,4.88
2023-05-09T11:47:29.623Z,4.18
2023-05-09T11:49:56.512Z,5.13
2023-05-09T11:52:23.917Z,4.82
2023-05-09T11:54:51.243Z,4.47
2023-05-09T11:57:18.224Z,5.25
2023-05-09T11:59:46.216Z,4.40
2023-05-09T12:02:13.587Z,4.50
2023-05-09T12:04:42.217Z,4.68
2023-05-09T12:07:11.920Z,4.50
2023-05-09T12:09:39.273Z,5.65
2023-05-09T12:12:11.462Z,7.07
2023-05-09T12:14:39.633Z,5.03
2023-05-09T12:17:06.872Z,4.88
2023-05-09T12:19:34.157Z,4.25
2023-05-09T12:22:03.791Z,4.53
2023-05-09T12:24:31.626Z,4.15
2023-05-09T12:26:59.739Z,4.07
2023-05-09T12:29:27.749Z,3.85
2023-05-09T12:31:55.310Z,3.92
2023-05-09T12:34:23.261Z,4.20
2023-05-09T12:36:53.429Z,4.03
2023-05-09T12:39:23.278Z,3.85
2023-05-09T12:42:00.972Z,4.53
2023-05-09T12:44:30.257Z,3.97
2023-05-09T12:46:58.617Z,4.20
2023-05-09T12:49:26.419Z,3.70
2023-05-09T12:51:55.022Z,3.92
2023-05-09T12:54:23.682Z,3.80
2023-05-09T12:56:53.788Z,4.40
2023-05-09T12:59:21.766Z,4.63
2023-05-09T13:01:53.912Z,4.10
2023-05-09T13:04:22.340Z,4.13
2023-05-09T13:06:50.822Z,4.40
2023-05-09T13:09:18.656Z,4.35
2023-05-09T13:11:47.737Z,4.40
2023-05-09T13:14:14.931Z,4.32
2023-05-09T13:16:42.141Z,4.50
2023-05-09T13:19:09.441Z,4.47
2023-05-09T13:21:36.952Z,4.70
2023-05-09T13:24:04.780Z,5.50
2023-05-09T13:26:31.931Z,4.53
2023-05-09T13:29:00.605Z,4.25
2023-05-09T13:31:27.581Z,4.43
2023-05-09T13:33:54.507Z,4.13
2023-05-09T13:36:21.470Z,4.25
2023-05-09T13:38:48.846Z,4.20
2023-05-09T13:41:20.321Z,5.45
2023-05-09T13:43:47.871Z,4.68
2023-05-09T13:46:16.151Z,4.80
2023-05-09T13:48:44.851Z,4.53
2023-05-09T13:51:11.811Z,3.83
2023-05-09T13:53:39.669Z,4.35
2023-05-09T13:56:09.245Z,4.85
2023-05-09T13:58:36.894Z,5.13
2023-05-09T14:01:03.926Z,3.97
2023-05-09T14:03:32.501Z,4.20
2023-05-09T14:05:59.792Z,3.75
2023-05-09T14:08:27.115Z,3.80
2023-05-09T14:10:54.641Z,4.15
2023-05-09T14:13:22.178Z,4.15
2023-05-09T14:15:49.298Z,3.92
2023-05-09T14:18:20.072Z,3.60
2023-05-09T14:20:49.181Z,3.85
2023-05-09T14:23:16.886Z,4.32
2023-05-09T14:25:43.767Z,4.38
2023-05-09T14:28:11.090Z,3.85
2023-05-09T14:30:38.251Z,3.97
2023-05-09T14:33:06.006Z,3.85
2023-05-09T14:35:34.240Z,3.75
2023-05-09T14:38:03.208Z,3.65
2023-05-09T14:40:31.884Z,4.13
2023-05-09T14:42:59.344Z,4.20
2023-05-09T14:45:26.478Z,4.18
2023-05-09T14:47:53.689Z,4.70
2023-05-09T14:50:21.509Z,5.15
2023-05-09T14:52:49.140Z,3.55
2023-05-09T14:55:17.660Z,3.75
2023-05-09T14:57:44.808Z,3.88
2023-05-09T15:00:21.232Z,3.22
2023-05-09T15:02:49.439Z,3.72
2023-05-09T15:05:16.813Z,3.45
2023-05-09T15:07:43.937Z,3.70
2023-05-09T15:10:11.135Z,4.32
2023-05-09T15:12:39.654Z,6.63
2023-05-09T15:15:14.102Z,3.78
2023-05-09T15:17:41.086Z,3.83
2023-05-09T15:20:08.541Z,3.60
2023-05-09T15:22:35.729Z,5.25
2023-05-09T15:25:05.411Z,3.60
2023-05-09T15:27:33.384Z,3.42
2023-05-09T15:30:01.554Z,3.17
2023-05-09T15:32:28.751Z,3.22
2023-05-09T15:34:55.643Z,3.70
2023-05-09T15:37:22.760Z,2.95
2023-05-09T15:39:49.602Z,3.05
2023-05-09T15:42:17.908Z,3.40
2023-05-09T15:44:47.158Z,3.40
2023-05-09T15:47:15.506Z,2.97
2023-05-09T15:49:42.334Z,3.10
2023-05-09T15:52:10.974Z,3.00
2023-05-09T15:54:38.033Z,3.30
2023-05-09T15:57:05.449Z,2.70
2023-05-09T15:59:32.357Z,2.92
2023-05-09T16:01:59.537Z,2.70
2023-05-09T16:04:27.782Z,2.90
2023-05-09T16:06:55.532Z,2.80
2023-05-09T16:09:22.316Z,3.05
2023-05-09T16:11:49.455Z,3.08
2023-05-09T16:14:16.347Z,2.60
2023-05-09T16:16:43.522Z,3.00
2023-05-09T16:19:10.641Z,3.15
2023-05-09T16:21:39.580Z,3.05
2023-05-09T16:24:07.814Z,2.90
2023-05-09T16:26:34.988Z,2.92
2023-05-09T16:29:02.374Z,2.63
2023-05-09T16:33:58.380Z,2.90
2023-05-09T16:36:25.754Z,2.72
2023-05-09T16:38:53.904Z,3.05
2023-05-09T16:41:20.697Z,2.78
2023-05-09T16:43:47.545Z,4.90
2023-05-09T16:46:14.655Z,3.03
2023-05-09T16:48:41.454Z,2.75
2023-05-09T16:51:08.646Z,2.80
2023-05-09T16:53:36.254Z,3.03
2023-05-09T16:56:06.392Z,3.30
2023-05-09T16:58:34.456Z,2.92
2023-05-09T17:01:03.240Z,2.97
2023-05-09T17:03:30.055Z,3.28
2023-05-09T17:05:56.881Z,2.83
2023-05-09T17:08:23.910Z,2.97
2023-05-09T17:10:50.988Z,3.25
2023-05-09T17:13:19.189Z,2.78
2023-05-09T17:15:46.460Z,3.05
2023-05-09T17:18:17.056Z,3.10
2023-05-09T17:20:46.547Z,2.80
2023-05-09T17:23:13.390Z,3.30
2023-05-09T17:25:40.202Z,3.20
2023-05-09T17:28:07.639Z,2.75
2023-05-09T17:30:35.977Z,3.08
2023-05-09T17:33:02.845Z,3.30
2023-05-09T17:35:30.316Z,2.83
2023-05-09T17:37:57.120Z,3.03
2023-05-09T17:40:24.390Z,3.08
2023-05-09T17:42:51.197Z,3.20
2023-05-09T17:45:18.151Z,2.63
2023-05-09T17:47:46.617Z,3.05
2023-05-09T17:50:17.490Z,3.03
2023-05-09T17:52:46.396Z,2.15
2023-05-09T17:55:13.616Z,2.65
2023-05-09T17:57:41.681Z,2.65
2023-05-09T18:00:09.511Z,2.70
2023-05-09T18:02:36.696Z,2.50
2023-05-09T18:05:05.727Z,2.83
2023-05-09T18:07:33.733Z,2.53
2023-05-09T18:10:00.814Z,2.30
2023-05-09T18:12:29.187Z,2.83
2023-05-09T18:14:56.002Z,2.90
2023-05-09T18:17:22.836Z,2.95
2023-05-09T18:19:50.046Z,2.60
2023-05-09T18:22:19.356Z,2.70
2023-05-09T18:24:46.133Z,2.22
2023-05-09T18:27:12.949Z,2.28
2023-05-09T18:29:39.736Z,2.70
2023-05-09T18:32:06.905Z,2.83
2023-05-09T18:34:33.806Z,2.45
2023-05-09T18:37:00.627Z,2.60
2023-05-09T18:39:28.853Z,2.40
2023-05-09T18:41:55.911Z,2.30
2023-05-09T18:44:22.740Z,2.40
2023-05-09T18:46:49.997Z,2.70
2023-05-09T18:49:17.476Z,2.40
2023-05-09T18:51:44.405Z,2.63
2023-05-09T18:54:13.048Z,2.85
2023-05-09T18:56:42.284Z,2.65
2023-05-09T18:59:11.955Z,2.63
2023-05-09T19:01:38.972Z,2.75
2023-05-09T19:04:06.974Z,2.40
2023-05-09T19:06:33.850Z,2.17
2023-05-09T19:09:03.062Z,2.58
2023-05-09T19:11:29.987Z,2.33
2023-05-09T19:13:58.448Z,2.50
2023-05-09T19:16:26.490Z,2.30
2023-05-09T19:18:55.842Z,2.55
2023-05-09T19:21:23.428Z,2.22
2023-05-09T19:23:50.535Z,2.60
2023-05-09T19:26:19.085Z,2.40
2023-05-09T19:28:46.784Z,2.20
2023-05-09T19:31:15.760Z,2.33
2023-05-09T19:33:45.543Z,2.88
2023-05-09T19:36:12.821Z,2.60
2023-05-09T19:38:39.845Z,2.08
2023-05-09T19:41:06.712Z,2.60
2023-05-09T19:43:33.845Z,2.80
2023-05-09T19:46:00.760Z,2.45
2023-05-09T19:48:29.078Z,2.50
2023-05-09T19:51:00.670Z,2.53
2023-05-09T19:53:28.051Z,2.53
2023-05-09T19:55:54.873Z,2.30
2023-05-09T19:58:21.711Z,2.20
2023-05-09T20:00:48.611Z,2.80
2023-05-09T20:03:15.749Z,2.38
2023-05-09T20:05:43.941Z,2.63
2023-05-09T20:08:10.908Z,2.40
2023-05-09T20:10:37.795Z,2.35
2023-05-09T20:13:05.051Z,2.60
2023-05-09T20:15:31.900Z,2.60
2023-05-09T20:17:58.915Z,2.50
2023-05-09T20:20:25.833Z,2.50
2023-05-09T20:22:56.989Z,2.67
2023-05-09T20:25:24.329Z,2.58
2023-05-09T20:27:51.258Z,2.70
2023-05-09T20:30:18.144Z,2.80
2023-05-09T20:32:45.041Z,2.73
2023-05-09T20:35:12.017Z,2.50
2023-05-09T20:37:39.662Z,2.80
2023-05-09T20:40:09.143Z,2.63
2023-05-09T20:42:36.110Z,2.90
2023-05-09T20:45:03.714Z,3.17
2023-05-09T20:47:30.918Z,2.70
2023-05-09T20:49:58.601Z,2.80
2023-05-09T20:52:26.073Z,3.07
2023-05-09T20:54:52.930Z,2.90
2023-05-09T20:57:21.541Z,3.50
2023-05-09T20:59:48.359Z,2.70
2023-05-09T21:02:15.571Z,3.27
2023-05-09T21:04:42.345Z,2.90
2023-05-09T21:07:10.397Z,2.73
2023-05-09T21:09:37.674Z,3.07
2023-05-09T21:12:05.218Z,2.97
2023-05-09T21:14:33.495Z,2.90
2023-05-09T21:17:00.837Z,3.13
2023-05-09T21:19:28.030Z,3.10
2023-05-09T21:21:55.526Z,3.07
2023-05-09T21:24:22.334Z,2.87
2023-05-09T21:26:49.444Z,3.20
2023-05-09T21:29:16.268Z,3.53
2023-05-09T21:31:44.813Z,3.20
2023-05-09T21:34:11.659Z,3.37
2023-05-09T21:36:38.981Z,3.10
2023-05-09T21:39:09.360Z,3.73
2023-05-09T21:41:37.196Z,3.63
2023-05-09T21:44:04.344Z,3.10
2023-05-09T21:46:32.418Z,3.57
2023-05-09T21:49:00.943Z,3.33
2023-05-09T21:51:28.770Z,3.77
2023-05-09T21:53:55.708Z,4.07
2023-05-09T21:56:23.097Z,3.50
2023-05-09T21:58:49.947Z,3.73
2023-05-09T22:01:18.835Z,3.20
2023-05-09T22:03:46.147Z,3.60
2023-05-09T22:06:14.882Z,4.00
2023-05-09T22:08:41.805Z,3.87
2023-05-09T22:11:09.131Z,4.17
2023-05-09T22:13:36.342Z,3.97
2023-05-09T22:16:04.209Z,3.57
2023-05-09T22:18:31.121Z,3.70
2023-05-09T22:20:58.412Z,3.67
2023-05-09T22:23:26.676Z,3.80
2023-05-09T22:25:53.997Z,4.00
2023-05-09T22:28:20.851Z,4.00
2023-05-09T22:30:48.009Z,4.20
2023-05-09T22:33:15.727Z,4.10
2023-05-09T22:35:42.905Z,4.27
2023-05-09T22:38:09.759Z,4.30
2023-05-09T22:40:38.337Z,4.07
2023-05-09T22:43:05.287Z,4.20
2023-05-09T22:45:32.561Z,4.30
2023-05-09T22:47:59.422Z,4.00
2023-05-09T22:50:26.469Z,4.20
2023-05-09T22:52:53.400Z,4.50
2023-05-09T22:55:20.782Z,4.07
2023-05-09T22:57:48.928Z,4.23
2023-05-09T23:00:17.143Z,4.37
2023-05-09T23:02:44.291Z,4.50
2023-05-09T23:05:11.441Z,4.40
2023-05-09T23:07:38.528Z,4.30
2023-05-09T23:10:05.945Z,5.30
2023-05-09T23:12:33.071Z,4.40
2023-05-09T23:15:01.772Z,4.80
2023-05-09T23:17:28.557Z,5.80
2023-05-09T23:19:55.814Z,4.67
2023-05-09T23:22:22.767Z,5.70
2023-05-09T23:24:49.852Z,5.03
2023-05-09T23:27:16.740Z,4.57
2023-05-09T23:29:43.834Z,4.47
2023-05-09T23:32:11.984Z,4.50
2023-05-09T23:34:39.253Z,4.57
2023-05-09T23:37:06.316Z,4.50
2023-05-09T23:39:33.657Z,4.30
2023-05-09T23:42:00.460Z,4.50
2023-05-09T23:44:27.565Z,4.43
2023-05-09T23:46:54.411Z,4.73
2023-05-09T23:49:22.669Z,4.37
2023-05-09T23:51:49.475Z,4.73
2023-05-09T23:54:16.871Z,4.60
2023-05-09T23:56:43.766Z,4.73
2023-05-09T23:59:10.950Z,4.60
